Listado único de aspirantes (Periodo de valoración 31 octubre de 2019)


* Listado ordenado por el total Autobaremo. Recuerde que también puede ordenarlo por Apellidos, Nombre

Listado único de aspirantes admitidos en turno libre en la bolsa de selección de personal estatutario temporal, categoría: Enfermero/a Especialista en Enfermería Pediátrica
Apellidos, Nombre Exp. SAS Auto. Exp. NO SAS Auto. Form. Auto. otros méritos Total Auto. Exp. SAS Baremo Exp. NO SAS Baremo Form. Baremo Otros méritos Punt. Total Baremo Fecha Act.
ESCOBEDO MESAS, ELISABET 2,250 0,000 45,000 20,000 67,250 2,250 0,000 15,850 3,700 21,800 01/02/2021
GÓMEZ GARRIDO, MARÍA BELÉN 1,000 29,050 33,000 0,000 63,050 1,000 6,000 6,000 0,000 12,000 01/02/2021
RODRÍGUEZ MONGE, MIGUEL ANGEL 6,000 0,000 37,000 20,000 63,000 6,000 0,000 1,000 0,100 7,100 01/02/2021
FERNANDEZ MEDINA, ISABEL MARIA 2,250 0,000 45,000 14,075 61,325 2,250 0,000 10,750 0,000 13,000 01/02/2021
CASTELLANO MIÑAN, FRANCISCA 2,800 5,850 45,000 7,325 58,325 2,800 0,800 23,250 2,100 28,950 01/02/2021
MORENO MANCEBO, REBECA 0,150 3,000 42,000 11,350 56,500 0,150 0,750 8,650 2,200 11,750 01/02/2021
TORRES LUZÓN, CRISTINA 0,900 6,000 42,000 8,375 56,375 0,900 6,000 9,150 0,700 15,850 01/02/2021
GÓMEZ CASTRO, ALBA 0,050 3,650 42,000 10,100 55,800 0,050 1,850 15,700 1,400 19,000 01/02/2021
FERNANDEZ LEAL, ANTONIO 1,500 13,650 37,000 3,200 55,350 1,500 3,950 1,450 0,600 7,500 01/02/2021
RODRIGUEZ SILVA, CRISTINA 2,450 0,450 42,000 9,900 54,800 2,450 0,150 9,750 3,200 15,550 01/02/2021
PÉREZ ROMERO, MARÍA ALBA 1,500 1,250 41,000 11,000 54,750 1,500 0,100 6,450 1,500 9,550 01/02/2021
LOZANO LÓPEZ, BEATRIZ 0,000 19,200 31,000 4,350 54,550 0,000 6,000 2,950 1,300 10,250 01/02/2021
GORDITO DE LA CERDA, EVA Mª 6,000 0,250 40,000 8,275 54,275 6,000 0,250 1,000 0,100 7,100 01/02/2021
RODRÍGUEZ RODRÍGUEZ, ISABEL MARÍA 1,000 0,000 42,000 9,700 52,700 1,000 0,000 11,450 2,200 14,650 01/02/2021
SUÁREZ CARRASCO, ANA 1,750 1,250 45,000 4,350 52,350 1,750 0,350 19,400 1,200 22,700 01/02/2021
RAMIRO SALMERÓN, ALICIA 2,050 0,300 42,000 7,650 52,000 2,050 0,300 21,500 2,700 26,550 01/02/2021
GONZÁLEZ FERNÁNDEZ, CARMEN TAMARA 2,450 0,000 45,000 3,900 51,350 2,450 0,000 30,400 2,400 35,250 01/02/2021
LÓPEZ SOTOS, ADORACIÓN 2,700 1,450 42,000 5,200 51,350 2,700 1,450 6,000 0,400 10,550 01/02/2021
LIMONES MARTIN, MARIA EDITA 3,900 7,050 40,000 0,300 51,250 3,900 0,500 4,000 0,000 8,500 01/02/2021
PARRA PARRA, YOLANDA 6,000 0,050 37,000 8,200 51,200 6,000 0,050 1,150 0,550 7,700 01/02/2021
MILÁN CANO, FÁTIMA GUADALUPE 0,150 2,000 42,000 7,000 51,150 0,150 1,400 24,150 1,500 27,200 01/02/2021
DÍAZ RODRÍGUEZ, GUADALUPE 1,550 0,000 42,000 7,250 50,800 1,550 0,000 17,500 2,100 21,150 01/02/2021
PASTOR MONTERO, SONIA Mª 1,500 6,000 37,000 7,575 50,575 1,500 6,000 2,650 0,000 8,650 01/02/2021
ENRÍQUEZ CEJUDO, ANTONIA CARMEN 6,000 0,000 37,000 7,450 50,450 6,000 0,000 12,900 0,900 19,800 01/02/2021
RUEDA TORRES, ANA BELÉN 6,000 0,800 37,000 7,450 50,450 6,000 0,000 15,900 0,550 22,450 01/02/2021
BRAVO CRIADO, MARIA DEL CARMEN 6,000 0,000 37,000 7,200 50,200 6,000 0,000 6,550 0,000 12,550 01/02/2021
LEÓN CARO, MARÍA JOSÉ 2,050 1,450 42,000 4,600 50,100 2,050 0,150 12,000 0,800 15,000 01/02/2021
PAREJO SAEZ, TOMAS 0,000 18,000 31,000 1,000 50,000 0,000 5,750 4,200 0,000 9,950 01/02/2021
BOHORQUEZ SANCHEZ, VICTOR 6,000 1,100 41,000 2,950 49,950 6,000 1,100 28,700 0,000 34,700 01/02/2021
LÓPEZ LORENTE, FRANCISCO JOSÉ 1,450 1,850 42,000 3,850 49,150 1,450 1,850 36,000 0,600 39,900 01/02/2021
RODRÍGUEZ SALINAS, MARÍA DEL MAR 6,000 0,000 37,000 6,000 49,000 6,000 0,000 23,700 1,300 31,000 01/02/2021
ALVAREZ CARRETERO, LETICIA 6,000 0,500 37,000 5,625 48,625 6,000 0,500 8,800 1,000 15,800 01/02/2021
TRABALON FLORES, ISABEL ROSA 0,000 3,250 42,000 3,350 48,600 0,000 2,700 6,000 0,300 9,000 01/02/2021
MARTOS CABRERA, MARÍA BEGOÑA 1,250 0,000 42,000 5,300 48,550 1,250 0,000 19,750 1,800 22,800 01/02/2021
SANCHEZ FORTES, LAURA 0,000 5,000 42,000 1,500 48,500 0,000 1,400 39,000 1,200 41,600 01/02/2021
BERNAL HERRERA, PEDRO 6,000 0,850 37,000 5,275 48,275 6,000 0,550 8,600 1,750 16,350 01/02/2021
DEL MORAL CHICA, MARIA LUISA 2,150 2,750 40,000 3,275 48,175 2,150 2,750 4,000 0,000 8,900 01/02/2021
MEGIAS PLATA, DAVID 2,600 0,000 42,000 3,500 48,100 2,600 0,000 19,200 0,500 22,300 01/02/2021
SAINZ DE LA MAZA PACHECO, ÁNGELA 0,300 0,800 45,000 1,600 47,700 0,300 0,000 9,000 0,900 10,200 01/02/2021
VADILLO MÁRQUEZ, CLARA 1,200 1,350 42,000 3,000 47,550 1,200 1,350 8,000 1,700 12,250 01/02/2021
SANCHEZ BAENA, ROSA MARIA 1,300 6,000 37,000 4,525 47,525 1,300 6,000 1,350 0,500 7,850 01/02/2021
GONZÁLEZ CANO-CABALLERO, MARÍA 0,200 0,000 42,000 5,175 47,375 0,200 0,000 8,600 0,200 9,000 01/02/2021
GONZÁLEZ NÚÑEZ, Mª LUISA 0,000 3,300 42,000 1,975 47,275 0,000 0,250 22,500 0,700 23,450 01/02/2021
MORALES MARÍN, JUAN JOSÉ 2,250 0,000 45,000 0,000 47,250 2,250 0,000 21,950 0,000 24,200 01/02/2021
BALSERA TREJO, ANTONIO RUFINO 6,000 2,950 40,000 1,200 47,200 6,000 2,950 24,600 0,500 31,100 01/02/2021
MARTÍN GONZÁLEZ, JESÚS ALBERTO 0,000 1,350 38,000 7,800 47,150 0,000 0,250 7,400 2,500 10,150 01/02/2021
GARCÍA GUZMÁN, JOSÉ MIGUEL 6,000 5,000 40,000 1,100 47,100 6,000 4,700 15,150 0,700 21,850 01/02/2021
ARANDA VALERA, ASUNCION 0,000 5,750 41,000 0,300 47,050 0,000 1,850 27,850 0,000 29,700 01/02/2021
JUSTICIA FERNÁNDEZ, JOSÉ CARLOS 2,550 2,350 42,000 0,100 47,000 2,550 2,350 21,000 0,000 25,900 01/02/2021
NAVARRETE ZAMPAÑA, MARÍA DE LOS DOLORES 0,000 1,550 42,000 3,250 46,800 0,000 1,100 36,000 0,100 37,200 01/02/2021
ALCAIDE BLE, FRANCISCO 1,800 3,100 40,900 0,950 46,750 1,800 3,100 21,550 0,800 27,250 01/02/2021
SANTAELLA MORENO, GEMA 1,650 6,000 37,000 3,425 46,425 1,650 0,200 1,000 0,300 3,150 01/02/2021
GONZÁLEZ PÉREZ, MARÍA JESÚS 0,200 1,850 39,000 5,300 46,350 0,200 1,500 38,750 2,700 43,150 01/02/2021
NAVAS RUIZ, CARMEN NURIA 0,000 1,300 44,000 1,050 46,350 0,000 0,650 16,800 0,400 17,850 01/02/2021
RAMOS MARTÍNEZ, Mª REMEDIOS 3,250 0,000 42,000 1,100 46,350 3,250 0,000 12,000 0,500 15,750 01/02/2021
ANDRADE AGUILAR, VIRGINIA 6,000 0,000 37,000 3,250 46,250 6,000 0,000 2,050 0,300 8,350 01/02/2021
ORDOÑEZ COSA, SILVIA 6,000 1,100 40,000 0,050 46,050 6,000 1,100 1,000 0,000 7,000 01/02/2021
LORA RAMOS, MARIA JOSE 5,450 2,850 40,000 0,000 46,000 5,450 0,000 1,000 0,000 6,450 01/02/2021
TORRES MIRAS, ALICIA 2,400 6,000 37,000 2,950 45,950 2,400 6,000 6,000 0,700 12,700 01/02/2021
PADIAL RUIZ, MARIA 1,400 0,000 42,000 2,500 45,900 1,400 0,000 6,000 0,000 7,400 01/02/2021
ROMERO SECADES, NAZARET 1,350 0,000 42,000 2,475 45,825 1,350 0,000 23,550 1,500 26,400 01/02/2021
SANCHEZ ORTIZ, SERGIO DAVID 6,000 3,000 39,000 0,825 45,825 6,000 1,850 4,000 0,000 10,000 01/02/2021
MARQUEZ GUTIERREZ, RAQUEL LOURDES 6,000 0,000 37,000 2,750 45,750 6,000 0,000 1,000 0,000 7,000 01/02/2021
LÓPEZ RODRÍGUEZ, ANA ISABEL 5,550 0,450 34,000 5,700 45,700 5,550 0,450 20,400 1,500 27,900 01/02/2021
LOPEZ MOLINA, ROSA MARIA 6,000 3,500 35,000 4,650 45,650 6,000 3,500 2,650 0,750 9,400 01/02/2021
AMADOR MATEOS, MARÍA LUISA 3,900 1,800 33,000 6,850 45,550 3,900 1,800 4,000 0,800 10,500 01/02/2021
FRÍAS PRIETO, IRENE PILAR 2,000 0,850 41,000 1,700 45,550 2,000 0,850 31,050 1,700 35,600 01/02/2021
CRIADO ÁVILA, CRISTINA 1,400 0,100 42,000 2,000 45,500 1,400 0,100 14,000 1,900 17,400 01/02/2021
JIMÉNEZ LÓPEZ, MARI CARMEN 6,000 1,600 35,000 4,500 45,500 6,000 1,600 1,900 0,800 8,700 01/02/2021
SANCHEZ MASOT, CARMEN 0,000 1,300 44,000 0,175 45,475 0,000 0,550 41,000 0,050 41,600 01/02/2021
MELERO PÁEZ, MÓNICA 6,000 2,200 37,000 0,000 45,200 6,000 0,000 4,950 0,000 10,950 01/02/2021
PAVÓN DE LA MAYA, MARIA JOSÉ 1,550 0,000 39,000 4,600 45,150 1,550 0,000 14,100 0,300 15,950 01/02/2021
JARDI REYES, MARIA ALMUDENA 6,000 0,300 37,000 2,075 45,075 6,000 0,000 16,250 1,000 23,250 01/02/2021
NADAL IBAÑEZ, ANA 4,700 2,150 37,000 2,025 45,025 4,700 0,000 1,450 0,700 6,850 01/02/2021
CARRIQUE HEREDIA, MARÍA DEL MAR 6,000 0,000 37,000 2,000 45,000 6,000 0,000 8,150 1,100 15,250 01/02/2021
GALVÁN TORREGROSA, Mª DE LAS MERCEDES 1,650 0,150 42,000 1,125 44,925 1,650 0,150 11,000 0,000 12,800 01/02/2021
MENA GOMARIZ, ANTONIO ALEXIS 0,450 0,000 42,000 2,475 44,925 0,450 0,000 23,000 1,150 24,600 01/02/2021
SÁNCHEZ VÁZQUEZ, PABLO 0,000 1,700 42,000 1,200 44,900 0,000 0,850 8,000 1,000 9,850 01/02/2021
SEGURA GONZALVEZ, SUSANA 4,000 3,750 37,000 1,900 44,900 4,000 3,450 3,900 1,000 10,900 01/02/2021
KRAUL LOPEZ, TAMARA 0,050 1,950 40,000 2,750 44,750 0,050 1,900 18,300 1,500 21,750 01/02/2021
ESPILDORA GONZALEZ, MARIA JOSE 6,000 0,000 37,000 1,550 44,550 6,000 0,000 16,000 0,000 22,000 01/02/2021
MARTÍN BARRERA, NATALIA 0,400 0,050 41,000 3,000 44,450 0,400 0,050 10,500 1,500 12,450 01/02/2021
RUEDA SEGURA, JUANA 6,000 2,850 37,000 1,375 44,375 6,000 2,850 9,200 0,300 15,500 01/02/2021
GALVIN SANLÉS, DEVORA 1,150 0,000 42,000 1,000 44,150 1,150 0,000 25,050 1,000 27,200 01/02/2021
BERROCAL MOLINA, ALICIA 6,000 1,350 37,000 1,000 44,000 6,000 0,000 10,500 1,000 17,500 01/02/2021
GODOY CEJUDO, MARIA ISABEL 6,000 0,000 37,000 1,000 44,000 6,000 0,000 12,000 1,000 19,000 01/02/2021
GONZALEZ RUIZ, LOURDES 6,000 0,000 37,000 1,000 44,000 6,000 0,000 23,350 0,900 30,250 01/02/2021
ROJANO BALLESTEROS, ROCIO 6,000 0,050 35,000 3,000 44,000 6,000 0,050 15,550 0,300 21,850 01/02/2021
RODRIGUEZ PARDO, Mª LOURDES 6,000 0,000 37,000 0,900 43,900 6,000 0,000 28,850 0,000 34,850 01/02/2021
SANCHEZ VEGA, JOSE LUIS 2,650 0,000 37,000 4,200 43,850 2,650 0,000 3,000 1,850 7,500 01/02/2021
CAMPOS SUERO, ESPERANZA MAC 6,000 0,000 37,000 0,800 43,800 6,000 0,000 12,050 0,300 18,350 01/02/2021
CORDÓN MARTÍNEZ, ISABEL 5,300 0,000 37,000 1,500 43,800 5,300 0,000 18,550 0,500 24,350 01/02/2021
CARMONA MILLAN, MARIA VICTORIA 6,000 0,650 37,000 0,750 43,750 6,000 0,600 1,250 0,200 7,450 01/02/2021
VALLEJO VÁZQUEZ, NOELIA 6,000 0,000 37,000 0,750 43,750 6,000 0,000 10,500 0,300 16,800 01/02/2021
GARCIA CARRILLO, MARIA 6,000 0,200 37,000 0,700 43,700 6,000 0,000 6,550 0,250 12,800 01/02/2021
CRUZ MARQUEZ, SERGIO 0,000 1,600 42,000 0,000 43,600 0,000 1,000 9,000 0,000 10,000 01/02/2021
MARCOS CARRERAS, FRANCISCO IGNACIO 1,600 0,000 40,000 2,000 43,600 1,600 0,000 30,350 1,700 33,650 01/02/2021
RUIZ CAMPOS, MARIA DEL ROSEL 4,450 3,650 37,000 0,525 43,525 4,450 3,350 7,650 0,300 13,950 01/02/2021
GARCIA FERNANDEZ, ADELINA 6,000 2,600 37,000 0,500 43,500 6,000 2,600 3,250 0,100 9,350 01/02/2021
ARAUJO GONZALEZ, ANA BELEN 6,000 3,850 37,000 0,400 43,400 6,000 3,850 7,000 0,300 13,300 01/02/2021
GALLO LOPEZ, JUAN CARLOS 6,000 0,000 37,000 0,400 43,400 6,000 0,000 8,050 0,000 14,050 01/02/2021
ALONSO ROMERO, ANGELES 6,000 0,000 37,000 0,325 43,325 6,000 0,000 1,000 0,000 7,000 01/02/2021
MARTÍN MARTÍN, RAQUEL 1,100 0,650 35,900 5,650 43,300 1,100 0,100 9,000 2,500 12,700 01/02/2021
SANCHEZ LINERO, CATALINA 6,000 0,000 37,000 0,300 43,300 6,000 0,000 16,000 0,000 22,000 01/02/2021
MARIN GARROCHO, ARANZAZU 6,000 0,000 37,000 0,200 43,200 6,000 0,000 2,250 0,000 8,250 01/02/2021
TRAVE HERNANDEZ, YOLANDA 6,000 0,100 37,000 0,200 43,200 6,000 0,000 14,000 0,000 20,000 01/02/2021
SILES LARREA, VICENTE MANUEL 6,000 0,000 37,000 0,175 43,175 6,000 0,000 4,250 0,000 10,250 01/02/2021
DOMINGUEZ OLIVA, MARIA CONCEPCION 6,000 0,000 37,000 0,150 43,150 6,000 0,000 2,500 0,000 8,500 01/02/2021
DOMÍNGUEZ GIL, JOSÉ MANUEL 6,000 0,000 37,000 0,100 43,100 6,000 0,000 1,000 0,000 7,000 01/02/2021
ROSSIÑOL RODRIGUEZ, ALEJANDRA 0,600 0,000 42,000 0,500 43,100 0,600 0,000 6,000 0,000 6,600 01/02/2021
SOLVES ESPEJO, CINTA DEL ROCÍO 6,000 1,850 37,000 0,100 43,100 6,000 1,250 16,700 0,000 22,700 01/02/2021
ESTEPA LOPEZ, MARIA TERESA 6,000 0,000 37,000 0,050 43,050 6,000 0,000 14,750 0,050 20,800 01/02/2021
SCHMIDT MORENO, MARÍA LUISA 6,000 0,000 37,000 0,025 43,025 6,000 0,000 11,750 0,000 17,750 01/02/2021
ALBARRÁN MUÑOZ, MARTA ELENA 0,700 0,000 41,000 1,300 43,000 0,700 0,000 15,450 1,000 17,150 01/02/2021
ARAGONES RUIZ, MARIA ISABEL 6,000 0,000 37,000 0,000 43,000 6,000 0,000 7,650 0,000 13,650 01/02/2021
ARROYO ALMODÓVAR, PATRICIA 0,000 0,900 39,000 3,100 43,000 0,000 0,300 25,050 2,100 27,450 01/02/2021
BOZQUEZ GOMEZ, MARIA VICENTA 6,000 0,000 37,000 0,000 43,000 6,000 0,000 1,000 0,000 7,000 01/02/2021
CABRAL FERNANDEZ, CELIA 2,200 4,000 37,000 0,000 43,000 2,200 3,900 3,550 0,000 9,550 01/02/2021
CHÍA DELGADO, JESÚS MARÍA 6,000 2,200 37,000 0,000 43,000 6,000 2,200 1,000 0,000 7,000 01/02/2021
GALVÁN ROMERO, HERMINIA 6,000 2,450 37,000 0,000 43,000 6,000 2,400 1,000 0,000 7,000 01/02/2021
GARCIA AYALA, CRISTINA 6,000 0,950 37,000 0,000 43,000 6,000 0,950 15,050 0,000 21,050 01/02/2021
GARCIA OTERO, MIRIAM 6,000 1,850 37,000 0,000 43,000 6,000 1,850 1,000 0,000 7,000 01/02/2021
GOMEZ BENITEZ, TERESA 6,000 0,200 37,000 0,000 43,000 6,000 0,200 9,750 0,000 15,750 01/02/2021
LAGARES GARCIA, CONCEPCION 6,000 0,000 37,000 0,000 43,000 6,000 0,000 1,000 0,000 7,000 01/02/2021
LAVADO BARRERA, MARÍA JOSÉ 6,000 0,000 37,000 0,000 43,000 6,000 0,000 1,000 0,000 7,000 01/02/2021
MEDINA LUQUE, LEONARDO 6,000 0,000 37,000 0,000 43,000 6,000 0,000 23,600 0,000 29,600 01/02/2021
MUIÑO AGUILAR, ELISA 6,000 1,200 37,000 0,000 43,000 6,000 1,200 3,000 0,000 9,000 01/02/2021
PEREZ TORRES, OLGA 6,000 0,000 37,000 0,000 43,000 6,000 0,000 1,000 0,000 7,000 01/02/2021
ROMAN RUBIO, ELENA 6,000 2,100 37,000 0,000 43,000 6,000 2,050 2,350 0,000 8,350 01/02/2021
RUIZ GORDO, CELIA 1,800 5,950 37,000 0,000 43,000 1,800 5,950 1,000 0,000 7,000 01/02/2021
SÁNCHEZ REYES, MARTA 2,750 4,600 37,000 0,000 43,000 2,750 4,600 6,000 0,000 12,000 01/02/2021
SORIA PEÑA, RAQUEL 6,000 0,000 37,000 0,000 43,000 6,000 0,000 18,400 0,000 24,400 01/02/2021
BARROSO CASAMITJANA, ANA 0,200 3,700 37,000 1,900 42,800 0,200 0,000 3,000 1,000 4,200 01/02/2021
CAMACHO MATEOS, ANA MARIA 6,000 2,450 36,600 0,100 42,700 6,000 2,450 9,900 0,000 15,900 01/02/2021
HERNÁNDEZ BLASCO, ELENA 0,000 1,800 38,000 2,800 42,600 0,000 1,350 8,000 0,450 9,800 01/02/2021
GARCIA LOPEZ, MARTA 1,950 6,000 36,000 0,400 42,400 1,950 6,000 4,000 0,100 10,100 01/02/2021
SALTI POZO, MIRIAM 2,200 0,000 40,000 0,000 42,200 2,200 0,000 4,000 0,000 6,200 01/02/2021
AGUILERA JIMENEZ, FRANCISCO JESUS 6,000 0,000 36,000 0,175 42,175 6,000 0,000 16,400 0,000 22,400 01/02/2021
DELGADO JIMENEZ, ELENA 6,000 0,000 36,000 0,100 42,100 6,000 0,000 6,000 0,000 12,000 01/02/2021
RODRÍGUEZ REYES, BEATRIZ 6,000 1,000 36,000 0,100 42,100 6,000 1,000 1,000 0,000 7,000 01/02/2021
ARRABAL NUÑEZ, LAURA 1,550 4,450 36,000 0,000 42,000 1,550 3,050 36,000 0,000 40,600 01/02/2021
MARTÍN CAMACHO, ELENA 1,950 4,700 36,000 0,000 42,000 1,950 4,700 1,000 0,000 7,000 01/02/2021
RUZ BLE, FRANCISCA 6,000 0,000 34,000 1,950 41,950 6,000 0,000 12,650 0,050 18,700 01/02/2021
NAVARRO GONZÁLEZ, IRENE 0,000 5,700 36,000 0,200 41,900 0,000 2,100 27,350 0,000 29,450 01/02/2021
GOMEZ GOMEZ, LUISA MARIA 6,000 2,350 35,000 0,600 41,600 6,000 2,300 3,000 0,400 9,400 01/02/2021
ORTEGA RIVERA, Mª CARMEN 1,050 6,000 31,000 4,550 41,550 1,050 6,000 1,000 0,050 7,050 01/02/2021
SEVILLA RODRIGUEZ, MARIA DEL MAR 0,050 6,000 35,000 0,475 41,475 0,050 6,000 3,000 0,000 9,000 01/02/2021
LOZANO PADILLA, JESSICA 0,800 0,000 39,000 1,600 41,400 0,800 0,000 11,500 0,800 13,100 01/02/2021
CABALEIRO COVELO, UXÍA 0,350 0,000 41,000 0,000 41,350 0,350 0,000 6,000 0,000 6,350 01/02/2021
ADALIA RODRIGUEZ, JONATAN 0,000 1,550 38,000 1,700 41,250 0,000 0,000 6,000 0,500 6,500 01/02/2021
CANO PADILLA, FRANCISCO JAVIER 0,050 0,900 39,000 1,275 41,225 0,050 0,500 36,000 1,000 37,550 01/02/2021
ARIZA MARTÍN, MIGUEL 0,000 1,200 40,000 0,000 41,200 0,000 1,200 10,000 0,000 11,200 01/02/2021
MILLÁN CADAVAL, CRISTINA 0,000 1,800 36,000 3,400 41,200 0,000 0,150 6,000 1,500 7,650 01/02/2021
DE REYNA GONZALEZ, Mª DEL CARMEN 6,000 0,000 35,000 0,000 41,000 6,000 0,000 3,250 0,000 9,250 01/02/2021
FORNELL OJEDA, MANUELA 6,000 0,250 35,000 0,000 41,000 6,000 0,000 1,000 0,000 7,000 01/02/2021
NAVAS COMESAÑA, MERCEDES 6,000 1,250 35,000 0,000 41,000 6,000 0,000 1,000 0,000 7,000 01/02/2021
PEREZ FERRER, MARIA DEL ROCIO 6,000 1,300 35,000 0,000 41,000 6,000 1,300 31,000 0,000 37,000 01/02/2021
CARMONA GUIRADO, ANDRÉS JESÚS 6,000 0,000 34,000 0,850 40,850 6,000 0,000 1,750 0,700 8,450 01/02/2021
CORDERO SOSA, MERCEDES 6,000 0,000 34,000 0,750 40,750 6,000 0,000 17,500 0,000 23,500 01/02/2021
GAMBERO SÁNCHEZ, JUANA 2,250 1,050 36,000 1,375 40,675 2,250 0,300 19,300 1,000 22,850 01/02/2021
ÁLVAREZ ROSALES, MARÍA JESÚS 0,000 1,150 38,000 1,500 40,650 0,000 0,650 33,500 1,500 35,650 01/02/2021
GUTIERREZ CONTRERAS, CONCEPCION 6,000 0,000 34,000 0,600 40,600 6,000 0,000 13,500 0,000 19,500 01/02/2021
RUIZ DE ALGAR SÁNCHEZ DIEZMA, VICTORIA EUGENIA 2,650 3,550 34,000 0,600 40,600 2,650 3,550 9,500 0,600 16,100 01/02/2021
TOLEDO LÓPEZ, ANA VIOLETA 6,000 0,000 33,000 1,500 40,500 6,000 0,000 25,750 1,000 32,750 01/02/2021
CARNERO BARBA, ISABEL 0,800 6,000 34,000 0,450 40,450 0,800 6,000 2,000 0,400 8,400 01/02/2021
LOZANO LOPEZ, ISABEL DEL MAR 0,550 6,000 33,000 1,450 40,450 0,550 6,000 6,000 0,700 12,700 01/02/2021
GRANADA FERNÁNDEZ, PALOMA 0,000 1,200 39,000 0,150 40,350 0,000 0,100 25,250 0,000 25,350 01/02/2021
MORLESIN MUÑOZ, SARA 3,050 0,000 37,000 0,300 40,350 3,050 0,000 1,000 0,100 4,150 01/02/2021
ROMERO GARCÍA, ALICIA 0,400 6,000 33,000 1,150 40,150 0,400 6,000 6,000 0,000 12,000 01/02/2021
PEREZ ORDOÑEZ, MIGUEL ANGEL 0,200 2,000 36,350 1,550 40,100 0,200 0,000 6,000 0,700 6,900 01/02/2021
ROMERO VICENTE, ELENA 1,900 6,000 31,000 3,100 40,100 1,900 6,000 1,000 0,825 7,825 01/02/2021
JALDON HIDALGO, GUADALUPE DE LA PEÑA 2,050 0,000 37,000 1,000 40,050 2,050 0,000 3,000 0,800 5,850 01/02/2021
DELGADO GARCÍA, MARÍA FERNANDA 6,000 0,000 34,000 0,000 40,000 6,000 0,000 3,850 0,000 9,850 01/02/2021
GÓMEZ REINA, ENCARNACIÓN 6,000 0,000 34,000 0,000 40,000 6,000 0,000 4,000 0,000 10,000 01/02/2021
LIÑAN JURADO, FRANCISCA ROCIO 6,000 0,000 34,000 0,000 40,000 6,000 0,000 2,250 0,000 8,250 01/02/2021
TORRES TABANERA, MARIA DOLORES 6,000 5,100 34,000 0,000 40,000 6,000 5,100 24,000 0,000 30,000 01/02/2021
IRUELA SÁNCHEZ, SIMÓN 0,750 0,000 36,100 3,000 39,850 0,750 0,000 9,000 0,500 10,250 01/02/2021
GÓMEZ DEL PINO, JEZABEL 0,750 1,300 37,200 0,575 39,825 0,750 0,000 6,000 0,025 6,775 01/02/2021
MALDONADO MALDONADO, B.YOLANDA 0,100 6,000 33,000 0,800 39,800 0,100 6,000 6,200 0,000 12,200 01/02/2021
BARBERÁ GUARDO, VIRGINIA 1,700 0,550 37,000 0,500 39,750 1,700 0,550 5,000 0,000 7,250 01/02/2021
GARCIA GONZALEZ, MARIA DEL CARMEN 6,000 0,000 33,000 0,625 39,625 6,000 0,000 7,800 0,000 13,800 01/02/2021
COBOS CARVAJAL, MARÍA JOSÉ 4,500 3,950 31,000 2,500 39,500 4,500 2,950 26,400 0,700 33,100 01/02/2021
HERRERÍAS SALMERÓN, ESTEFANÍA 3,150 3,250 31,000 2,400 39,400 3,150 3,250 12,100 1,500 19,600 01/02/2021
LAMPREA MORUNO, MªANGELES 1,150 0,250 37,000 1,000 39,400 1,150 0,000 1,000 0,600 2,750 01/02/2021
OTERO GARCIA, M.VICTORIA 6,000 0,000 31,000 2,375 39,375 6,000 0,000 25,750 0,500 32,250 01/02/2021
MEDINILLA GARRIDO, MARIA JESUS 1,250 0,600 37,000 0,500 39,350 1,250 0,000 3,000 0,100 4,350 01/02/2021
DORADO SANCHEZ, ROCIO 6,000 0,300 33,300 0,000 39,300 6,000 0,300 2,750 0,000 8,750 01/02/2021
JIMENEZ OCAÑA, NIEVES 2,300 0,000 37,000 0,000 39,300 2,300 0,000 5,000 0,000 7,300 01/02/2021
MARTÍNEZ SALOMÓN, ANA 1,300 5,300 31,000 1,700 39,300 1,300 2,900 9,050 0,000 13,700 01/02/2021
FONTALBA RUIZ, JOSE RAMON 6,000 3,600 33,250 0,000 39,250 6,000 2,700 1,000 0,000 7,000 01/02/2021
MARTIN MORALES, CARMEN 0,000 0,700 36,000 2,500 39,200 0,000 0,000 6,000 1,200 7,200 01/02/2021
PARDO SANCHEZ, ALEJANDRO 0,050 0,150 39,000 0,000 39,200 0,050 0,150 30,500 0,000 30,700 01/02/2021
GARCIA RIOS, Mª ROSARIO 1,100 6,000 31,000 2,125 39,125 1,100 6,000 8,100 0,000 14,100 01/02/2021
HUERTAS BERLANGA, VANESSA 0,150 6,000 33,000 0,100 39,100 0,150 6,000 1,000 0,000 7,000 01/02/2021
CANDÓN MORENO, ÁLVARO 0,900 0,000 36,000 2,125 39,025 0,900 0,000 21,100 0,000 22,000 01/02/2021
ARTEAGA VALVERDE, MARIA ISABEL 6,000 0,000 33,000 0,000 39,000 6,000 0,000 1,000 0,000 7,000 01/02/2021
DIAZ RIVERO, MARIA ISABEL 6,000 0,000 33,000 0,000 39,000 6,000 0,000 3,150 0,000 9,150 01/02/2021
MAESA MARQUEZ, DELIA 0,000 0,000 39,000 0,000 39,000 0,000 0,000 6,000 0,000 6,000 01/02/2021
HARO LORENTE, JAVIER MANUEL 0,000 1,250 36,000 1,700 38,950 0,000 0,650 18,650 0,875 20,175 01/02/2021
FERNANDEZ RUIZ, ROSA MARIA 6,000 0,000 32,550 0,300 38,850 6,000 0,000 10,250 0,000 16,250 01/02/2021

- Al posicionarse sobre el número de página le aparecerá el rango de notas de autobaremo que contiene dicha página

[1]  [2]  [3] 


Color de candidatos/as que por autobaremo alcanzan puntuación mínima para formar parte de la bolsa Candidatos/as que por autobaremo alcanzan puntuación mínima para formar parte de la bolsa

Color de Candidatos/as que no alcanzan puntuación mínima para formar parte de la bolsa Candidatos/as que no alcanzan puntuación mínima para formar parte de la bolsa



[Volver]